Time;durP1;ratioP1;P1;durP2;ratioP2;P2;SDS_P1;SDS_P2;PMS_P1;PMS_P2;Temp;Humidity;BMP_temperature;BMP_pressure;BME280_temperature;BME280_humidity;BME280_pressure;Samples;Min_cycle;Max_cycle;Signal;HPM_P1;HPM_P2
2023/04/18 00:01:39;;;;;;;20.10;14.98;;;;;;;6.93;97.63;102614.50;4975287;28;20026;-76
2023/04/18 00:04:04;;;;;;;19.90;14.52;;;;;;;6.64;97.67;102584.25;4976809;28;20054;-77
2023/04/18 00:06:31;;;;;;;18.77;14.38;;;;;;;6.61;97.72;102577.44;4975598;28;20046;-76
2023/04/18 00:08:56;;;;;;;19.65;14.23;;;;;;;6.81;97.72;102611.31;4976647;28;20164;-76
2023/04/18 00:11:21;;;;;;;21.48;15.20;;;;;;;6.53;97.30;102562.19;4976782;28;20038;-76
2023/04/18 00:13:47;;;;;;;20.02;15.07;;;;;;;6.71;96.82;102586.69;4976495;28;20031;-76
2023/04/18 00:16:12;;;;;;;19.90;15.05;;;;;;;6.85;95.78;102610.34;4976776;28;20037;-79
2023/04/18 00:18:38;;;;;;;20.25;13.98;;;;;;;6.85;94.73;102612.94;4976860;28;20385;-77
2023/04/18 00:21:05;;;;;;;21.23;15.27;;;;;;;6.89;93.15;102614.56;4976437;28;20077;-76
2023/04/18 00:23:32;;;;;;;18.60;13.32;;;;;;;6.84;92.76;102607.81;4976364;28;20477;-76
2023/04/18 00:25:57;;;;;;;19.63;13.68;;;;;;;6.88;91.48;102614.56;4976752;28;20034;-77
2023/04/18 00:28:23;;;;;;;18.40;13.55;;;;;;;6.83;91.13;102614.69;4976448;28;20023;-76
2023/04/18 00:30:48;;;;;;;18.40;13.43;;;;;;;6.79;90.43;102615.63;4976463;28;20154;-77
2023/04/18 00:33:13;;;;;;;16.17;12.45;;;;;;;6.38;89.88;102546.22;4976462;28;20030;-78
2023/04/18 00:35:39;;;;;;;18.05;12.55;;;;;;;6.74;89.84;102614.00;4976241;28;20102;-77
2023/04/18 00:38:04;;;;;;;18.45;13.27;;;;;;;6.74;89.37;102617.41;4975934;28;20019;-78
2023/04/18 00:40:29;;;;;;;16.92;13.15;;;;;;;6.70;89.31;102620.94;4975151;28;20428;-81
2023/04/18 00:42:55;;;;;;;16.02;12.32;;;;;;;6.68;88.34;102617.53;4976199;28;20413;-81
2023/04/18 00:45:21;;;;;;;18.35;13.35;;;;;;;6.16;88.29;102535.47;4976831;28;20484;-76
2023/04/18 00:47:48;;;;;;;17.95;13.10;;;;;;;6.64;88.22;102621.03;4976330;28;20073;-77
2023/04/18 00:50:14;;;;;;;15.85;12.00;;;;;;;6.30;87.79;102565.19;4976411;28;20400;-86
2023/04/18 00:52:40;;;;;;;19.65;13.30;;;;;;;6.38;87.55;102582.97;4976324;28;20037;-92
2023/04/18 00:55:06;;;;;;;19.55;13.15;;;;;;;6.55;87.26;102613.50;4976627;28;20074;-91
2023/04/18 00:57:33;;;;;;;17.95;12.57;;;;;;;6.32;87.21;102580.53;4976299;28;20109;-85
2023/04/18 00:59:59;;;;;;;18.63;13.52;;;;;;;6.52;87.38;102609.25;4976629;28;20027;-88
2023/04/18 01:02:26;;;;;;;17.48;12.57;;;;;;;6.29;87.20;102575.44;4977567;28;20055;-81
2023/04/18 01:04:51;;;;;;;18.17;12.90;;;;;;;5.95;87.65;102537.53;4960101;28;20046;-81
2023/04/18 01:07:17;;;;;;;18.17;13.45;;;;;;;6.35;88.15;102608.69;4976593;28;20037;-88
2023/04/18 01:09:43;;;;;;;17.75;13.77;;;;;;;5.96;87.85;102541.78;4975862;28;20051;-91
2023/04/18 01:12:08;;;;;;;19.05;13.00;;;;;;;6.33;88.28;102616.44;4975621;28;20393;-92
2023/04/18 01:14:33;;;;;;;22.02;13.85;;;;;;;6.02;87.71;102567.34;4975718;28;20023;-92
2023/04/18 01:17:00;;;;;;;19.00;13.48;;;;;;;6.28;88.29;102607.09;4976065;28;20030;-92
2023/04/18 01:19:25;;;;;;;19.73;13.57;;;;;;;6.25;87.85;102605.44;4975838;28;20023;-86
2023/04/18 01:21:52;;;;;;;18.42;13.50;;;;;;;5.80;87.64;102540.34;4975515;28;20031;-88
2023/04/18 01:24:17;;;;;;;20.13;14.07;;;;;;;5.82;87.57;102540.31;4975155;28;20388;-81
2023/04/18 01:26:44;;;;;;;22.05;14.18;;;;;;;5.52;87.92;102492.94;4975474;28;20034;-77
2023/04/18 01:29:10;;;;;;;17.52;13.68;;;;;;;6.11;88.10;102596.28;4975352;28;20365;-78
2023/04/18 01:31:37;;;;;;;19.05;14.15;;;;;;;5.96;88.24;102575.13;4975351;28;20022;-80
2023/04/18 01:34:03;;;;;;;18.17;13.27;;;;;;;5.72;88.34;102543.00;4975203;28;20040;-77
2023/04/18 01:36:29;;;;;;;20.60;14.15;;;;;;;5.95;88.55;102585.41;4975083;28;20102;-77
2023/04/18 01:38:54;;;;;;;19.10;14.07;;;;;;;5.51;88.06;102516.88;4974915;28;20430;-76
2023/04/18 01:41:20;;;;;;;17.48;13.70;;;;;;;5.83;88.22;102570.19;4975265;28;20082;-76
2023/04/18 01:43:45;;;;;;;19.65;14.73;;;;;;;5.84;88.29;102572.72;4974946;28;20031;-76
2023/04/18 01:46:11;;;;;;;18.63;14.13;;;;;;;5.83;87.94;102570.19;4974965;28;20102;-78
2023/04/18 01:48:36;;;;;;;19.38;14.63;;;;;;;5.91;87.98;102588.91;4974982;28;20472;-79
2023/04/18 01:51:01;;;;;;;18.80;14.27;;;;;;;5.64;87.82;102551.69;4974986;28;20034;-77
2023/04/18 01:53:27;;;;;;;19.02;14.20;;;;;;;5.81;87.96;102579.63;4974742;28;20042;-77
2023/04/18 01:55:52;;;;;;;20.63;14.25;;;;;;;5.75;87.74;102585.69;4974784;28;20041;-80
2023/04/18 01:58:21;;;;;;;19.83;13.65;;;;;;;5.68;87.92;102587.47;4974715;28;20030;-76
2023/04/18 02:00:48;;;;;;;20.80;14.18;;;;;;;5.64;88.29;102590.97;4974784;28;20027;-76
2023/04/18 02:03:13;;;;;;;18.45;13.85;;;;;;;5.45;87.63;102562.19;4974579;28;20038;-79
2023/04/18 02:05:38;;;;;;;17.35;13.27;;;;;;;5.55;88.11;102587.69;4974744;28;20031;-76
2023/04/18 02:08:04;;;;;;;18.27;14.20;;;;;;;5.52;87.73;102582.63;4974457;28;20027;-76
2023/04/18 02:10:29;;;;;;;17.70;13.15;;;;;;;5.50;87.48;102584.31;4974382;28;20043;-77
2023/04/18 02:12:54;;;;;;;18.70;13.70;;;;;;;5.21;87.53;102552.28;4974502;28;20082;-77
2023/04/18 02:15:22;;;;;;;17.92;13.80;;;;;;;5.14;87.46;102537.84;4974756;28;20027;-78
2023/04/18 02:17:47;;;;;;;18.58;13.50;;;;;;;5.34;87.45;102581.13;4974560;28;20030;-76
2023/04/18 02:20:13;;;;;;;17.30;13.20;;;;;;;4.99;86.93;102538.03;4974510;28;20102;-80
2023/04/18 02:22:38;;;;;;;18.65;13.57;;;;;;;5.29;87.01;102578.63;4974242;28;20026;-77
2023/04/18 02:25:04;;;;;;;18.45;13.30;;;;;;;5.25;86.97;102582.09;4956417;28;20030;-77
2023/04/18 02:27:29;;;;;;;17.65;13.10;;;;;;;4.81;87.25;102516.06;4974471;28;20465;-76
2023/04/18 02:29:55;;;;;;;20.67;14.07;;;;;;;5.13;87.31;102577.13;4974473;28;20102;-76
2023/04/18 02:32:20;;;;;;;16.67;12.32;;;;;;;5.09;87.30;102580.59;4974165;28;20058;-77
2023/04/18 02:34:45;;;;;;;18.25;14.30;;;;;;;5.05;87.02;102581.50;4974093;28;20126;-77
2023/04/18 02:37:11;;;;;;;19.85;14.05;;;;;;;5.02;87.76;102578.97;4974191;28;20023;-77
2023/04/18 02:39:36;;;;;;;19.88;13.98;;;;;;;4.98;86.82;102585.00;4974061;28;20026;-77
2023/04/18 02:42:01;;;;;;;18.63;14.25;;;;;;;4.99;86.85;102582.41;4974173;28;20491;-77
2023/04/18 02:44:27;;;;;;;20.90;14.15;;;;;;;4.70;86.71;102539.22;4974096;28;20037;-77
2023/04/18 02:46:52;;;;;;;19.25;14.07;;;;;;;4.68;86.59;102532.44;4972733;28;20078;-76
2023/04/18 02:49:18;;;;;;;18.88;14.73;;;;;;;4.77;86.76;102553.66;4972437;28;20058;-77
2023/04/18 02:51:43;;;;;;;17.98;13.70;;;;;;;4.90;87.11;102569.72;4974107;28;20381;-83
2023/04/18 02:54:08;;;;;;;18.58;14.00;;;;;;;4.51;87.06;102519.81;4973968;28;20074;-79
2023/04/18 02:56:38;;;;;;;20.63;13.88;;;;;;;4.83;86.84;102576.63;4973859;28;20050;-77
2023/04/18 02:59:04;;;;;;;16.80;12.70;;;;;;;4.58;86.79;102541.91;4974048;28;20431;-77
2023/04/18 03:01:29;;;;;;;17.38;13.68;;;;;;;4.69;86.94;102565.69;4973298;28;20031;-82
2023/04/18 03:03:55;;;;;;;16.55;12.85;;;;;;;4.74;86.85;102576.72;4974047;28;20050;-81
2023/04/18 03:06:20;;;;;;;17.70;13.43;;;;;;;4.64;86.68;102559.78;4974018;28;20614;-77
2023/04/18 03:08:45;;;;;;;19.00;13.43;;;;;;;4.16;86.60;102485.25;4973496;28;20508;-76
2023/04/18 03:11:11;;;;;;;19.40;13.55;;;;;;;4.20;86.82;102489.44;4972123;28;20074;-77
2023/04/18 03:13:36;;;;;;;19.08;13.32;;;;;;;4.71;86.36;102565.66;4973596;28;20077;-83
2023/04/18 03:16:01;;;;;;;19.88;13.68;;;;;;;4.43;86.56;102524.19;4973991;28;20054;-77
2023/04/18 03:18:27;;;;;;;18.52;13.20;;;;;;;4.44;87.09;102538.69;4956815;28;20033;-77
2023/04/18 03:20:52;;;;;;;18.83;13.77;;;;;;;4.18;86.33;102498.84;4974012;28;20489;-85
2023/04/18 03:23:17;;;;;;;18.65;13.57;;;;;;;4.61;86.46;102576.00;4973697;28;20037;-78
2023/04/18 03:25:43;;;;;;;17.90;12.88;;;;;;;4.40;86.98;102548.06;4973652;28;20480;-77
2023/04/18 03:28:08;;;;;;;20.48;13.20;;;;;;;4.54;86.89;102578.66;4973550;28;20035;-77
2023/04/18 03:30:33;;;;;;;16.10;12.93;;;;;;;4.39;87.71;102566.00;4973782;28;20369;-76
2023/04/18 03:33:01;;;;;;;17.17;13.00;;;;;;;4.42;87.71;102579.59;4973801;28;20030;-91
2023/04/18 03:35:27;;;;;;;19.30;13.70;;;;;;;3.94;87.91;102509.31;4975487;28;20503;-78
2023/04/18 03:37:53;;;;;;;18.10;13.57;;;;;;;4.38;87.76;102587.31;4977531;28;20054;-78
2023/04/18 03:40:19;;;;;;;17.17;13.82;;;;;;;4.26;88.33;102565.25;4977857;28;20110;-79
2023/04/18 03:42:44;;;;;;;18.27;13.85;;;;;;;4.33;88.07;102579.69;4977385;28;20425;-80
2023/04/18 03:45:10;;;;;;;19.70;13.32;;;;;;;4.31;88.10;102584.81;4977321;28;20042;-81
2023/04/18 03:47:35;;;;;;;18.77;13.70;;;;;;;4.28;88.24;102589.94;4977380;28;20023;-77
2023/04/18 03:50:00;;;;;;;16.65;13.27;;;;;;;3.76;88.56;102510.28;4960590;28;20054;-84
2023/04/18 03:52:26;;;;;;;17.63;13.45;;;;;;;4.20;88.91;102599.41;4977268;28;20031;-79
2023/04/18 03:54:54;;;;;;;17.10;12.73;;;;;;;3.88;88.99;102551.09;4977059;28;20030;-88
2023/04/18 03:57:19;;;;;;;17.38;13.65;;;;;;;3.89;89.02;102557.03;4978809;28;20090;-79
2023/04/18 03:59:45;;;;;;;17.98;13.35;;;;;;;4.07;89.32;102589.28;4976914;28;20050;-90
2023/04/18 04:02:10;;;;;;;19.52;13.88;;;;;;;3.92;89.18;102562.97;4975940;28;20519;-85
2023/04/18 04:04:35;;;;;;;21.02;14.73;;;;;;;4.10;88.76;102592.66;4977020;28;20027;-81
2023/04/18 04:07:01;;;;;;;17.33;13.88;;;;;;;3.93;88.95;102561.25;4977121;28;20031;-80
2023/04/18 04:09:26;;;;;;;17.27;12.95;;;;;;;3.83;89.21;102539.19;4976607;28;20393;-78
2023/04/18 04:11:52;;;;;;;17.95;13.13;;;;;;;3.92;88.89;102562.13;4976789;28;20115;-79
2023/04/18 04:14:17;;;;;;;16.00;12.50;;;;;;;4.04;89.46;102592.72;4976641;28;20053;-84
2023/04/18 04:16:42;;;;;;;19.88;13.65;;;;;;;4.02;89.39;102589.31;4976862;28;20045;-81
2023/04/18 04:19:08;;;;;;;17.50;12.95;;;;;;;3.55;89.67;102518.97;4976541;28;20101;-78
2023/04/18 04:21:33;;;;;;;20.27;13.10;;;;;;;3.98;89.76;102588.50;4977098;28;20023;-82
2023/04/18 04:24:00;;;;;;;18.75;13.50;;;;;;;3.25;89.59;102479.16;4976470;28;20022;-78
2023/04/18 04:26:26;;;;;;;17.40;13.32;;;;;;;3.94;89.88;102599.59;4976346;28;20421;-82
2023/04/18 04:28:52;;;;;;;18.10;12.80;;;;;;;3.90;89.89;102597.91;4978556;28;20380;-81
2023/04/18 04:38:08;;;;;;;19.88;13.25;;;;;;;2.79;90.33;102419.88;4976427;28;20439;-77
2023/04/18 04:41:21;;;;;;;18.83;13.88;;;;;;;3.88;90.17;102598.78;4976359;28;20027;-77
2023/04/18 04:44:05;;;;;;;19.48;14.27;;;;;;;3.21;90.33;102497.03;4976214;28;20066;-77
2023/04/18 04:47:25;;;;;;;19.00;13.70;;;;;;;2.40;89.79;102360.53;4975681;28;20034;-77
2023/04/18 04:49:50;;;;;;;17.83;13.00;;;;;;;2.25;89.86;102330.00;4976085;28;20126;-77
2023/04/18 04:52:15;;;;;;;17.83;13.30;;;;;;;3.86;89.98;102598.81;4976254;28;20054;-86
2023/04/18 04:54:42;;;;;;;18.48;13.38;;;;;;;3.48;89.57;102527.53;4976144;28;20461;-91
2023/04/18 04:57:07;;;;;;;19.88;14.02;;;;;;;3.87;89.99;102604.75;4976420;28;20061;-91
2023/04/18 04:59:32;;;;;;;17.65;13.43;;;;;;;3.86;90.50;102605.63;4975550;28;20054;-91
2023/04/18 05:01:58;;;;;;;17.10;13.45;;;;;;;3.88;89.89;102603.91;4976240;28;20090;-92
2023/04/18 05:04:24;;;;;;;20.23;13.77;;;;;;;3.65;89.82;102573.41;4976789;28;20034;-94
2023/04/18 05:06:49;;;;;;;16.58;13.20;;;;;;;3.63;89.89;102565.72;4976285;28;20023;-94
2023/04/18 05:09:15;;;;;;;17.08;12.85;;;;;;;3.85;89.95;102594.56;4975982;28;20055;-95
2023/04/18 05:11:40;;;;;;;17.60;13.45;;;;;;;3.95;90.20;102603.84;4976848;28;20026;-82
2023/04/18 05:14:06;;;;;;;17.67;12.50;;;;;;;3.02;89.93;102450.34;4976387;28;20392;-81
2023/04/18 05:16:31;;;;;;;19.33;13.20;;;;;;;4.02;89.71;102610.59;4978441;28;20027;-88
2023/04/18 05:18:57;;;;;;;18.45;13.70;;;;;;;3.63;89.95;102535.06;4976957;28;20023;-94
2023/04/18 05:21:24;;;;;;;17.77;13.43;;;;;;;3.97;90.34;102594.47;4985727;28;20038;-94
2023/04/18 05:23:50;;;;;;;16.92;12.88;;;;;;;3.74;90.01;102553.75;4984812;28;20476;-94
2023/04/18 05:26:15;;;;;;;18.25;13.40;;;;;;;3.84;89.98;102567.31;4979900;28;20026;-94
2023/04/18 05:28:41;;;;;;;16.50;13.40;;;;;;;4.00;89.93;102585.91;4978581;28;20018;-80
2023/04/18 05:31:06;;;;;;;17.77;13.50;;;;;;;3.91;89.40;102558.72;4975989;28;20019;-89
2023/04/18 05:33:32;;;;;;;18.15;13.43;;;;;;;4.25;89.89;102607.88;4975986;28;20026;-86
2023/04/18 05:35:57;;;;;;;18.42;13.80;;;;;;;4.28;90.22;102612.97;4959286;28;20085;-88
2023/04/18 05:38:23;;;;;;;18.92;13.25;;;;;;;4.28;89.47;102620.66;4978193;28;20025;-91
2023/04/18 05:40:54;;;;;;;16.95;13.23;;;;;;;4.27;89.54;102625.78;4979033;28;20019;-80
2023/04/18 05:43:20;;;;;;;17.02;12.88;;;;;;;3.98;90.36;102578.28;4961553;28;20045;-89
2023/04/18 05:45:45;;;;;;;18.73;13.93;;;;;;;4.06;90.36;102592.72;4974838;28;20030;-82
2023/04/18 05:48:11;;;;;;;18.83;13.52;;;;;;;4.26;90.40;102631.75;4975538;28;20081;-86
2023/04/18 05:50:36;;;;;;;17.17;13.60;;;;;;;4.32;90.28;102629.97;4960694;28;20184;-82
2023/04/18 05:53:02;;;;;;;18.17;14.07;;;;;;;4.41;90.60;102630.75;4976247;28;20031;-86
2023/04/18 05:59:04;;;;;;;19.83;14.23;;;;;;;4.28;89.95;102584.84;5013846;28;20100;-80
2023/04/18 06:01:29;;;;;;;17.80;12.38;;;;;;;4.75;90.04;102636.44;5013938;28;20034;-86
2023/04/18 06:03:54;;;;;;;19.35;13.05;;;;;;;4.48;90.01;102584.66;5013918;28;20032;-88
2023/04/18 06:06:20;;;;;;;18.23;13.23;;;;;;;4.95;90.28;102643.91;5014191;28;20033;-88
2023/04/18 06:08:46;;;;;;;16.85;13.18;;;;;;;5.06;89.99;102642.09;5029356;28;20030;-91
2023/04/18 06:11:13;;;;;;;17.23;12.13;;;;;;;5.01;89.64;102616.50;4998480;28;20034;-75
2023/04/18 06:13:39;;;;;;;17.45;12.27;;;;;;;4.96;88.94;102572.22;4994354;28;20073;-81
2023/04/18 06:16:04;;;;;;;16.38;12.10;;;;;;;5.55;88.59;102637.22;4994087;28;20117;-87
2023/04/18 06:18:30;;;;;;;16.83;12.50;;;;;;;5.29;87.79;102576.06;5010691;28;20018;-79
2023/04/18 06:20:55;;;;;;;16.95;12.45;;;;;;;5.71;87.50;102620.78;5013396;28;20045;-82
2023/04/18 06:23:20;;;;;;;16.35;13.00;;;;;;;5.97;87.22;102642.66;5012075;28;20387;-82
2023/04/18 06:25:46;;;;;;;16.10;12.10;;;;;;;5.88;85.76;102599.16;5013109;28;20080;-85
2023/04/18 06:28:11;;;;;;;15.38;12.00;;;;;;;6.31;85.85;102648.13;5013372;28;20026;-88
2023/04/18 06:30:38;;;;;;;16.05;11.18;;;;;;;6.35;84.95;102644.63;5013705;28;20108;-82
2023/04/18 06:33:03;;;;;;;16.25;11.52;;;;;;;5.95;84.41;102577.72;5012911;28;20029;-84
2023/04/18 06:35:29;;;;;;;15.70;11.85;;;;;;;6.41;84.99;102659.09;5013125;28;20021;-83
2023/04/18 06:37:55;;;;;;;16.70;11.25;;;;;;;6.48;84.85;102650.38;5013301;28;20044;-90
2023/04/18 06:40:20;;;;;;;15.07;11.57;;;;;;;6.60;84.83;102648.47;5013033;28;20026;-82
2023/04/18 06:42:46;;;;;;;16.77;11.38;;;;;;;6.73;83.84;102646.53;5013317;28;20081;-92
2023/04/18 06:45:11;;;;;;;16.05;11.65;;;;;;;6.89;83.75;102649.69;5013262;28;20029;-84
2023/04/18 06:47:38;;;;;;;15.60;12.32;;;;;;;7.11;83.18;102657.81;5013193;28;20353;-86
2023/04/18 06:50:04;;;;;;;15.32;11.40;;;;;;;7.21;82.24;102650.78;5028269;28;20033;-80
2023/04/18 06:52:30;;;;;;;18.27;11.60;;;;;;;6.36;81.27;102489.78;5012996;28;20540;-80
2023/04/18 06:55:18;;;;;;;14.32;10.85;;;;;;;7.65;82.02;102658.41;5011523;28;20034;-82
2023/04/18 06:57:44;;;;;;;12.70;10.65;;;;;;;8.38;78.63;102655.09;5034908;28;20498;-83
2023/04/18 07:00:09;;;;;;;14.43;9.93;;;;;;;9.21;75.36;102585.00;5052423;28;20029;-81
2023/04/18 07:02:36;;;;;;;15.57;10.32;;;;;;;9.35;70.32;102577.72;5052685;28;20025;-83
2023/04/18 07:05:02;;;;;;;14.98;9.75;;;;;;;9.02;71.60;102645.69;5051783;28;20032;-80
2023/04/18 07:07:28;;;;;;;12.90;9.75;;;;;;;7.68;75.05;102521.25;5052423;28;20394;-81
2023/04/18 07:09:53;;;;;;;20.48;10.60;;;;;;;7.86;76.11;102615.94;5053387;28;20032;-91
2023/04/18 07:12:19;;;;;;;15.25;10.27;;;;;;;7.95;77.82;102659.47;5056320;28;20027;-86
2023/04/18 07:14:44;;;;;;;16.02;10.60;;;;;;;7.74;78.88;102645.34;5056050;28;20109;-81
2023/04/18 07:17:10;;;;;;;13.52;10.35;;;;;;;7.41;79.15;102607.53;5056364;28;20377;-81
2023/04/18 07:19:35;;;;;;;14.15;10.45;;;;;;;7.63;79.10;102660.19;5055196;28;20461;-81
2023/04/18 07:22:00;;;;;;;14.20;11.05;;;;;;;7.48;80.31;102661.38;5056356;28;20033;-80
2023/04/18 07:24:26;;;;;;;13.98;10.52;;;;;;;7.04;80.25;102599.72;5055076;28;20025;-83
2023/04/18 07:26:51;;;;;;;15.35;10.68;;;;;;;7.11;81.08;102617.56;5055970;28;20104;-83
2023/04/18 07:29:25;;;;;;;14.88;10.45;;;;;;;7.39;82.00;102658.13;5055549;28;20017;-82
2023/04/18 07:31:51;;;;;;;14.13;10.80;;;;;;;7.43;81.66;102664.88;5055912;28;20035;-82
2023/04/18 07:34:20;;;;;;;13.80;10.50;;;;;;;7.26;81.62;102646.38;5056145;28;20033;-81
2023/04/18 07:36:46;;;;;;;13.70;11.18;;;;;;;7.34;80.89;102667.66;5056200;28;20027;-84
2023/04/18 07:39:11;;;;;;;14.55;10.40;;;;;;;6.81;82.13;102587.34;5055975;28;20441;-80
2023/04/18 07:41:36;;;;;;;13.98;11.07;;;;;;;7.37;82.16;102677.84;5056099;28;20032;-82
2023/04/18 07:44:02;;;;;;;14.93;11.15;;;;;;;7.06;82.22;102623.66;5055901;28;20029;-83
2023/04/18 07:46:27;;;;;;;13.07;10.15;;;;;;;7.19;82.49;102633.69;5055611;28;20048;-80
2023/04/18 07:48:53;;;;;;;14.18;10.55;;;;;;;7.29;82.25;102639.47;5055909;28;20033;-84
2023/04/18 07:51:18;;;;;;;14.20;10.25;;;;;;;7.34;82.74;102649.66;5055828;28;20017;-83
2023/04/18 07:53:44;;;;;;;14.98;10.15;;;;;;;6.86;81.83;102557.28;5055953;28;20036;-84
2023/04/18 07:56:13;;;;;;;14.40;9.85;;;;;;;7.35;81.99;102628.22;5055422;28;20025;-84
2023/04/18 07:58:38;;;;;;;15.10;9.88;;;;;;;6.95;81.27;102536.53;5055564;28;20045;-83
2023/04/18 08:01:12;;;;;;;14.52;10.35;;;;;;;7.82;81.53;102655.47;5054460;28;20394;-83
2023/04/18 08:03:40;;;;;;;14.35;10.55;;;;;;;7.99;80.64;102643.09;5055971;28;20029;-84
2023/04/18 08:06:06;;;;;;;13.77;10.55;;;;;;;8.17;79.24;102659.00;5055737;28;20131;-83
2023/04/18 08:08:32;;;;;;;14.25;10.40;;;;;;;8.26;78.83;102662.19;5055674;28;20032;-85
2023/04/18 08:10:57;;;;;;;14.57;9.65;;;;;;;8.38;78.73;102657.66;5054080;28;20398;-83
2023/04/18 08:13:23;;;;;;;12.40;9.60;;;;;;;8.27;78.59;102627.00;5055295;28;20024;-84
2023/04/18 08:15:48;;;;;;;13.35;10.68;;;;;;;8.40;78.07;102627.56;5053722;28;20039;-84
2023/04/18 08:18:13;;;;;;;12.20;9.38;;;;;;;8.67;78.02;102662.94;5055324;28;20029;-84
2023/04/18 08:20:39;;;;;;;14.00;9.80;;;;;;;8.96;77.42;102684.50;5055116;28;20056;-83
2023/04/18 08:23:06;;;;;;;15.27;9.80;;;;;;;8.84;75.96;102665.03;5054646;28;20103;-83
2023/04/18 08:25:37;;;;;;;12.40;9.35;;;;;;;9.04;76.29;102691.13;5055156;28;20029;-83
2023/04/18 08:28:03;;;;;;;12.35;9.30;;;;;;;8.99;75.81;102679.25;5054983;28;20036;-83
2023/04/18 08:30:28;;;;;;;12.50;9.20;;;;;;;9.10;75.51;102696.13;5054992;28;20057;-81
2023/04/18 08:32:54;;;;;;;12.32;9.32;;;;;;;8.93;75.98;102688.00;5055343;28;20025;-83
2023/04/18 08:35:19;;;;;;;11.88;8.80;;;;;;;8.73;76.74;102655.03;5043414;28;20445;-86
2023/04/18 08:37:45;;;;;;;13.00;8.75;;;;;;;9.09;76.75;102694.44;5035254;28;20541;-81
2023/04/18 08:40:10;;;;;;;11.48;9.30;;;;;;;9.09;75.44;102693.59;5034966;28;20026;-84
2023/04/18 08:42:37;;;;;;;13.50;9.48;;;;;;;9.08;76.57;102695.31;5034999;28;20379;-83
2023/04/18 08:45:04;;;;;;;12.73;9.07;;;;;;;9.16;76.63;102687.41;5034914;28;20075;-84
2023/04/18 08:47:29;;;;;;;14.15;9.95;;;;;;;9.29;75.35;102691.31;5034798;28;20449;-81
2023/04/18 08:49:56;;;;;;;13.32;9.05;;;;;;;9.23;74.68;102663.13;5034893;28;20021;-83
2023/04/18 08:52:22;;;;;;;13.48;9.73;;;;;;;9.55;74.86;102694.91;5045812;28;20053;-80
2023/04/18 08:54:49;;;;;;;17.85;9.02;;;;;;;9.42;73.76;102637.66;5055500;28;20035;-79
2023/04/18 08:57:17;;;;;;;13.02;9.90;;;;;;;9.81;72.64;102676.91;5056027;28;20037;-90
2023/04/18 08:59:45;;;;;;;12.82;9.68;;;;;;;10.02;73.25;102675.41;5055608;28;20025;-83
2023/04/18 09:02:11;;;;;;;14.50;9.57;;;;;;;10.03;72.05;102643.56;5055333;28;20029;-80
2023/04/18 09:04:44;;;;;;;12.55;9.35;;;;;;;10.51;71.91;102663.53;5053460;28;20025;-79
2023/04/18 09:07:15;;;;;;;10.98;8.48;;;;;;;10.75;71.84;102660.13;5054808;28;20097;-81
2023/04/18 09:09:44;;;;;;;12.32;9.02;;;;;;;10.90;70.23;102667.31;5054633;28;20025;-83
2023/04/18 09:12:13;;;;;;;11.68;8.20;;;;;;;10.86;68.11;102660.59;5054396;28;20021;-84
2023/04/18 09:14:44;;;;;;;12.70;9.45;;;;;;;10.75;69.05;102636.88;5054317;28;20036;-81
2023/04/18 09:17:12;;;;;;;11.23;8.55;;;;;;;10.99;69.61;102657.56;5054512;28;20021;-79
2023/04/18 09:19:45;;;;;;;10.95;7.93;;;;;;;10.74;69.50;102666.19;5054228;28;20027;-80
2023/04/18 09:22:12;;;;;;;13.23;9.10;;;;;;;10.50;69.43;102665.25;5054098;28;20028;-80
2023/04/18 09:24:37;;;;;;;11.32;9.20;;;;;;;10.47;69.72;102656.78;5054315;28;20020;-79
2023/04/18 09:27:10;;;;;;;13.35;8.63;;;;;;;10.38;68.84;102629.53;5053758;28;20032;-84
2023/04/18 09:29:48;;;;;;;12.40;8.43;;;;;;;10.66;68.34;102668.19;5053927;28;20021;-81
2023/04/18 09:32:28;;;;;;;10.80;7.88;;;;;;;10.47;68.49;102633.53;5053934;28;20033;-82
2023/04/18 09:35:02;;;;;;;10.23;7.88;;;;;;;10.47;66.45;102678.28;5053623;28;20028;-83
2023/04/18 09:37:28;;;;;;;10.45;7.57;;;;;;;10.34;68.67;102677.84;5053958;28;20059;-83
2023/04/18 09:39:54;;;;;;;9.73;7.75;;;;;;;10.01;67.35;102628.09;5053645;28;20045;-82
2023/04/18 09:42:21;;;;;;;11.50;8.32;;;;;;;9.86;68.58;102597.63;5053599;28;20029;-83
2023/04/18 09:45:04;;;;;;;9.60;7.55;;;;;;;10.20;68.73;102623.19;5053855;28;20062;-83
2023/04/18 09:47:33;;;;;;;11.48;7.57;;;;;;;10.67;69.10;102667.28;5053732;28;20028;-82
2023/04/18 09:49:59;;;;;;;9.73;6.93;;;;;;;10.86;67.11;102659.75;5053441;28;20028;-81
2023/04/18 09:52:27;;;;;;;9.07;6.68;;;;;;;10.65;65.94;102614.00;5052237;28;20078;-78
2023/04/18 09:54:57;;;;;;;8.95;6.85;;;;;;;10.99;66.56;102660.16;5035648;28;20033;-77
2023/04/18 09:57:26;;;;;;;9.52;6.10;;;;;;;10.90;66.24;102609.63;5033014;28;20048;-82
2023/04/18 10:00:00;;;;;;;9.48;6.40;;;;;;;11.39;65.76;102656.97;5033237;28;20036;-79
2023/04/18 10:02:27;;;;;;;10.93;6.55;;;;;;;11.22;63.31;102633.50;5032990;28;20540;-80
2023/04/18 10:04:54;;;;;;;9.55;6.30;;;;;;;10.88;63.54;102577.81;5033460;28;20041;-81
2023/04/18 10:07:21;;;;;;;9.45;6.55;;;;;;;11.18;63.06;102624.97;5033148;28;20062;-79
2023/04/18 10:09:48;;;;;;;8.20;6.18;;;;;;;11.25;64.12;102669.56;5033291;28;20554;-79
2023/04/18 10:12:13;;;;;;;10.13;6.13;;;;;;;11.32;64.54;102671.03;5033005;28;20017;-82
2023/04/18 10:14:42;;;;;;;12.90;6.47;;;;;;;11.49;62.85;102643.63;5032950;28;20026;-81
2023/04/18 10:17:08;;;;;;;8.50;5.82;;;;;;;11.34;63.53;102626.09;5032953;28;20083;-82
2023/04/18 10:19:33;;;;;;;9.60;5.65;;;;;;;10.91;61.95;102580.28;5033088;28;20033;-79
2023/04/18 10:22:00;;;;;;;8.32;5.50;;;;;;;11.52;62.43;102670.31;5032667;28;20021;-78
2023/04/18 10:24:43;;;;;;;6.72;4.38;;;;;;;11.41;61.35;102668.97;5033204;28;20029;-77
2023/04/18 10:27:09;;;;;;;7.25;4.68;;;;;;;11.16;60.67;102663.81;5033109;28;20030;-79
2023/04/18 10:29:55;;;;;;;8.00;5.05;;;;;;;10.75;62.71;102607.59;5031648;28;20379;-79
2023/04/18 10:32:23;;;;;;;6.95;4.15;;;;;;;10.87;61.10;102618.34;5032460;28;20041;-78
2023/04/18 10:34:52;;;;;;;6.63;4.40;;;;;;;11.34;60.97;102670.09;5032925;28;20033;-76
2023/04/18 10:37:17;;;;;;;7.65;4.60;;;;;;;11.31;60.94;102596.94;5031618;28;20116;-79
2023/04/18 10:39:56;;;;;;;7.63;4.97;;;;;;;11.72;59.93;102652.28;5032813;28;20558;-76
2023/04/18 10:42:56;;;;;;;6.65;4.38;;;;;;;11.85;60.91;102657.84;5033223;28;20026;-77
2023/04/18 10:45:26;;;;;;;8.57;5.28;;;;;;;11.73;60.55;102635.84;5032091;28;20489;-78
2023/04/18 10:48:21;;;;;;;7.97;5.13;;;;;;;11.80;61.49;102655.44;5032780;28;20096;-77
2023/04/18 10:51:15;;;;;;;9.15;6.25;;;;;;;11.80;62.57;102663.22;5028129;28;20052;-79
2023/04/18 10:53:47;;;;;;;8.05;5.55;;;;;;;11.88;62.32;102665.47;5032966;28;20104;-85
2023/04/18 10:56:14;;;;;;;8.13;5.57;;;;;;;11.83;61.05;102662.25;5031611;28;20486;-78
2023/04/18 10:58:40;;;;;;;7.80;5.68;;;;;;;11.80;60.50;102662.34;5031138;28;20534;-78
2023/04/18 11:01:07;;;;;;;8.20;5.97;;;;;;;11.80;61.03;102657.16;5032561;28;20025;-79
2023/04/18 11:03:33;;;;;;;9.18;6.53;;;;;;;11.80;61.09;102657.16;5032556;28;20048;-84
2023/04/18 11:06:02;;;;;;;9.02;6.70;;;;;;;11.48;62.28;102613.47;5032369;28;20104;-81
2023/04/18 11:08:27;;;;;;;9.68;7.15;;;;;;;11.46;59.93;102601.50;5031091;28;20021;-80
2023/04/18 11:10:57;;;;;;;9.10;7.03;;;;;;;11.76;61.23;102648.66;5032555;28;20052;-80
2023/04/18 11:13:22;;;;;;;11.05;8.65;;;;;;;11.75;61.75;102650.41;5032139;28;20033;-77
2023/04/18 11:15:48;;;;;;;10.70;8.10;;;;;;;11.85;61.58;102653.50;5032202;28;20076;-76
2023/04/18 11:18:13;;;;;;;12.93;8.70;;;;;;;11.80;61.75;102654.56;5032481;28;20026;-76
2023/04/18 11:20:45;;;;;;;11.18;7.43;;;;;;;11.68;62.08;102656.69;5032360;28;20080;-78
2023/04/18 11:23:18;;;;;;;9.65;7.32;;;;;;;11.70;62.35;102657.50;5032611;28;20441;-76
2023/04/18 11:25:44;;;;;;;10.40;7.45;;;;;;;11.55;63.12;102659.84;5032329;28;20053;-76
2023/04/18 11:28:12;;;;;;;11.30;7.78;;;;;;;11.35;64.08;102632.13;5032249;28;20431;-80
2023/04/18 11:30:39;;;;;;;12.35;7.47;;;;;;;11.58;64.27;102651.94;5032188;28;20029;-76